EISG/SXL METAR and TAF weather

Enter ICAO airport designator
Station Type Date Time Source
EISG METAR 2019/08/19 08:00 UTC NOAA

EISG 190800Z 25012KT 9999 FEW015 12/11 Q1008


Station Type Date Time Source
EISG Decoded METAR 2019/08/19 08:00 UTC NOAA

Station name not available
Aug 19, 2019 - 04:00 AM EDT / 2019.08.19 0800 UTC
Wind: from the WSW (250 degrees) at 14 MPH (12 KT):0
Visibility: greater than 7 mile(s):0
Sky conditions: mostly clear
Temperature: 53 F (12 C)
Dew Point: 51 F (11 C)
Relative Humidity: 93%
Pressure (altimeter): 29.77 in. Hg (1008 hPa)
ob: EISG 190800Z 25012KT 9999 FEW015 12/11 Q1008
cycle: 8

Station Type Date Time Source
EISG TAF UTC NOAA

Error!

Example: see airport list